EIDL

Donegal Airport

Donegal, Ireland
METAR EIDL 131930Z 18017KT 9999 -RA SCT040 11/09 Q1007
Observed Flight Rules
Nov-13 @ 19:30 UTC (9 hours ago) Visual Flight Rules
Wind Visibility Clouds Conditions
180° at 17 knots 10,000+ meters
  • Scattered at 4,000' AGL
  • Light Rain
Temperatures Readings
Current 11°C / 52°F
Dewpoint 9°C / 48°F
Humidity 88%
Altimeter 29.73" Hg
Pressure 1007 hPa
Elevation 9
METAR EIDL 131930Z 18017KT 9999 -RA SCT040 11/09 Q1007
Observed Flight Rules
Nov-13 @ 19:30 UTC
(9 hours ago)
VFR
Wind Visibility
180° at 17 knots 10,000+ meters
Clouds
  • Scattered at 4,000' AGL
Conditions
  • Light Rain
Temperature Dewpoint
11°C / 52°F 9°C / 48°F
Humidity Altimeter Pressure
88% 29.73" Hg 1007 hPa